KDUG

Bisbee Douglas International Airport

Douglas Bisbee, Arizona, USA
KDUG 162324Z 1700/1724 01004KT P6SM BKN250 FM170600 VRB04KT P6SM SCT250 FM172200 25006KT P6SM SCT250
Issued Valid From Valid To
Jan-16 @ 23:24 UTC
(6 hours ago)
Jan-17 @ 00:00 UTC
(5 hours ago)
Jan-18 @ 00:00 UTC
(in 19 hours)
Jan-17 @ 00:00 to Jan-17 @ 06:00
KDUG 162324Z 1700/1724 01004KT P6SM BKN250
Wind Visibility Clouds
10° at 4 knots Greater than 6 miles
  • Broken at 25,000' AGL
From Jan-17 @ 06:00 to Jan-17 @ 22:00
FM170600 VRB04KT P6SM SCT250
Wind Visibility Clouds
Variable at 4 knots Greater than 6 miles
  • Scattered at 25,000' AGL
From Jan-17 @ 22:00 to Jan-18 @ 00:00
FM172200 25006KT P6SM SCT250
Wind Visibility Clouds
250° at 6 knots Greater than 6 miles
  • Scattered at 25,000' AGL
KDUG 162324Z 1700/1724 01004KT P6SM BKN250 FM170600 VRB04KT P6SM SCT250 FM172200 25006KT P6SM SCT250
Issued Jan-16 @ 23:24 UTC
(6 hours ago)
Valid From Jan-17 @ 00:00 UTC
(5 hours ago)
Valid To Jan-18 @ 00:00 UTC
(in 19 hours)
Jan-17 @ 00:00 - Jan-17 @ 06:00
Wind Visibility
10° at 4 knots Greater than 6 miles
Clouds
  • Broken at 25,000' AGL
From Jan-17 @ 06:00 - Jan-17 @ 22:00
Wind Visibility
Variable at 4 knots Greater than 6 miles
Clouds
  • Scattered at 25,000' AGL
From Jan-17 @ 22:00 - Jan-18 @ 00:00
Wind Visibility
250° at 6 knots Greater than 6 miles
Clouds
  • Scattered at 25,000' AGL